sensor_id;sensor_type;location;lat;lon;timestamp;temperature;humidity
29413;DHT22;16389;50.126;8.450;2023-08-21T00:01:59;21.30;99.90
29413;DHT22;16389;50.126;8.450;2023-08-21T00:04:25;21.30;99.90
29413;DHT22;16389;50.126;8.450;2023-08-21T00:06:51;21.30;99.90
29413;DHT22;16389;50.126;8.450;2023-08-21T00:09:16;21.30;99.90
29413;DHT22;16389;50.126;8.450;2023-08-21T00:11:42;21.30;99.90
29413;DHT22;16389;50.126;8.450;2023-08-21T00:14:08;21.30;99.90
29413;DHT22;16389;50.126;8.450;2023-08-21T00:16:33;21.20;99.90
29413;DHT22;16389;50.126;8.450;2023-08-21T00:19:00;21.30;99.90
29413;DHT22;16389;50.126;8.450;2023-08-21T00:21:25;21.30;99.90
29413;DHT22;16389;50.126;8.450;2023-08-21T00:23:51;21.20;99.90
29413;DHT22;16389;50.126;8.450;2023-08-21T00:26:17;21.20;99.90
29413;DHT22;16389;50.126;8.450;2023-08-21T00:28:42;21.20;99.90
29413;DHT22;16389;50.126;8.450;2023-08-21T00:31:08;21.10;99.90
29413;DHT22;16389;50.126;8.450;2023-08-21T00:33:34;21.10;99.90
29413;DHT22;16389;50.126;8.450;2023-08-21T00:35:59;21.10;99.90
29413;DHT22;16389;50.126;8.450;2023-08-21T00:38:25;21.10;99.90
29413;DHT22;16389;50.126;8.450;2023-08-21T00:40:52;21.00;99.90
29413;DHT22;16389;50.126;8.450;2023-08-21T00:43:18;21.00;99.90
29413;DHT22;16389;50.126;8.450;2023-08-21T00:45:45;20.90;99.90
29413;DHT22;16389;50.126;8.450;2023-08-21T00:48:12;20.90;99.90
29413;DHT22;16389;50.126;8.450;2023-08-21T00:50:38;20.90;99.90
29413;DHT22;16389;50.126;8.450;2023-08-21T00:53:04;20.90;99.90
29413;DHT22;16389;50.126;8.450;2023-08-21T00:55:31;20.90;99.90
29413;DHT22;16389;50.126;8.450;2023-08-21T00:57:57;20.90;99.90
29413;DHT22;16389;50.126;8.450;2023-08-21T01:00:24;20.90;99.90
29413;DHT22;16389;50.126;8.450;2023-08-21T01:02:50;20.80;99.90
29413;DHT22;16389;50.126;8.450;2023-08-21T01:05:18;20.70;99.90
29413;DHT22;16389;50.126;8.450;2023-08-21T01:08:01;20.80;99.90
29413;DHT22;16389;50.126;8.450;2023-08-21T01:10:58;20.70;99.90
29413;DHT22;16389;50.126;8.450;2023-08-21T01:16:31;20.80;99.90
29413;DHT22;16389;50.126;8.450;2023-08-21T01:18:57;20.70;99.90
29413;DHT22;16389;50.126;8.450;2023-08-21T01:21:25;20.70;99.90
29413;DHT22;16389;50.126;8.450;2023-08-21T01:23:50;20.80;99.90
29413;DHT22;16389;50.126;8.450;2023-08-21T01:26:16;20.80;99.90
29413;DHT22;16389;50.126;8.450;2023-08-21T01:28:42;20.70;99.90
29413;DHT22;16389;50.126;8.450;2023-08-21T01:31:31;20.70;99.90
29413;DHT22;16389;50.126;8.450;2023-08-21T01:34:01;20.80;99.90
29413;DHT22;16389;50.126;8.450;2023-08-21T01:36:30;20.70;99.90
29413;DHT22;16389;50.126;8.450;2023-08-21T01:38:56;20.70;99.90
29413;DHT22;16389;50.126;8.450;2023-08-21T01:41:25;20.70;99.90
29413;DHT22;16389;50.126;8.450;2023-08-21T01:43:51;20.60;99.90
29413;DHT22;16389;50.126;8.450;2023-08-21T01:46:16;20.70;99.90
29413;DHT22;16389;50.126;8.450;2023-08-21T01:48:42;20.60;99.90
29413;DHT22;16389;50.126;8.450;2023-08-21T01:51:08;20.60;99.90
29413;DHT22;16389;50.126;8.450;2023-08-21T01:53:33;20.60;99.90
29413;DHT22;16389;50.126;8.450;2023-08-21T01:55:59;20.60;99.90
29413;DHT22;16389;50.126;8.450;2023-08-21T01:58:25;20.60;99.90
29413;DHT22;16389;50.126;8.450;2023-08-21T02:00:50;20.60;99.90
29413;DHT22;16389;50.126;8.450;2023-08-21T02:03:16;20.70;99.90
29413;DHT22;16389;50.126;8.450;2023-08-21T02:05:42;20.70;99.90
29413;DHT22;16389;50.126;8.450;2023-08-21T02:08:13;20.70;99.90
29413;DHT22;16389;50.126;8.450;2023-08-21T02:10:51;20.70;99.90
29413;DHT22;16389;50.126;8.450;2023-08-21T02:13:18;20.70;99.90
29413;DHT22;16389;50.126;8.450;2023-08-21T02:15:44;20.70;99.90
29413;DHT22;16389;50.126;8.450;2023-08-21T02:18:10;20.70;99.90
29413;DHT22;16389;50.126;8.450;2023-08-21T02:20:35;20.60;99.90
29413;DHT22;16389;50.126;8.450;2023-08-21T02:23:01;20.60;99.90
29413;DHT22;16389;50.126;8.450;2023-08-21T02:25:26;20.60;99.90
29413;DHT22;16389;50.126;8.450;2023-08-21T02:27:52;20.60;99.90
29413;DHT22;16389;50.126;8.450;2023-08-21T02:30:18;20.60;99.90
29413;DHT22;16389;50.126;8.450;2023-08-21T02:32:43;20.60;99.90
29413;DHT22;16389;50.126;8.450;2023-08-21T02:35:09;20.60;99.90
29413;DHT22;16389;50.126;8.450;2023-08-21T02:37:35;20.60;99.90
29413;DHT22;16389;50.126;8.450;2023-08-21T02:40:05;20.60;99.90
29413;DHT22;16389;50.126;8.450;2023-08-21T02:42:33;20.60;99.90
29413;DHT22;16389;50.126;8.450;2023-08-21T02:44:59;20.60;99.90
29413;DHT22;16389;50.126;8.450;2023-08-21T02:47:24;20.60;99.90
29413;DHT22;16389;50.126;8.450;2023-08-21T02:49:50;20.60;99.90
29413;DHT22;16389;50.126;8.450;2023-08-21T02:52:17;20.60;99.90
29413;DHT22;16389;50.126;8.450;2023-08-21T02:54:43;20.50;99.90
29413;DHT22;16389;50.126;8.450;2023-08-21T02:57:08;20.60;99.90
29413;DHT22;16389;50.126;8.450;2023-08-21T02:59:34;20.50;99.90
29413;DHT22;16389;50.126;8.450;2023-08-21T03:02:00;20.50;99.90
29413;DHT22;16389;50.126;8.450;2023-08-21T03:04:25;20.40;99.90
29413;DHT22;16389;50.126;8.450;2023-08-21T03:06:51;20.40;99.90
29413;DHT22;16389;50.126;8.450;2023-08-21T03:09:16;20.40;99.90
29413;DHT22;16389;50.126;8.450;2023-08-21T03:11:42;20.30;99.90
29413;DHT22;16389;50.126;8.450;2023-08-21T03:14:08;20.30;99.90
29413;DHT22;16389;50.126;8.450;2023-08-21T03:16:33;20.30;99.90
29413;DHT22;16389;50.126;8.450;2023-08-21T03:19:00;20.20;99.90
29413;DHT22;16389;50.126;8.450;2023-08-21T03:21:26;20.20;99.90
29413;DHT22;16389;50.126;8.450;2023-08-21T03:23:55;20.20;99.90
29413;DHT22;16389;50.126;8.450;2023-08-21T03:26:22;20.20;99.90
29413;DHT22;16389;50.126;8.450;2023-08-21T03:28:47;20.20;99.90
29413;DHT22;16389;50.126;8.450;2023-08-21T03:31:13;20.10;99.90
29413;DHT22;16389;50.126;8.450;2023-08-21T03:33:39;20.10;99.90
29413;DHT22;16389;50.126;8.450;2023-08-21T03:36:06;20.10;99.90
29413;DHT22;16389;50.126;8.450;2023-08-21T03:38:32;20.10;99.90
29413;DHT22;16389;50.126;8.450;2023-08-21T03:40:57;20.00;99.90
29413;DHT22;16389;50.126;8.450;2023-08-21T03:43:23;20.10;99.90
29413;DHT22;16389;50.126;8.450;2023-08-21T03:45:48;20.00;99.90
29413;DHT22;16389;50.126;8.450;2023-08-21T03:48:14;20.00;99.90
29413;DHT22;16389;50.126;8.450;2023-08-21T03:50:40;20.00;99.90
29413;DHT22;16389;50.126;8.450;2023-08-21T03:53:05;20.00;99.90
29413;DHT22;16389;50.126;8.450;2023-08-21T03:55:31;20.00;99.90
29413;DHT22;16389;50.126;8.450;2023-08-21T03:57:57;20.00;99.90
29413;DHT22;16389;50.126;8.450;2023-08-21T04:00:22;19.90;99.90
29413;DHT22;16389;50.126;8.450;2023-08-21T04:02:48;19.90;99.90
29413;DHT22;16389;50.126;8.450;2023-08-21T04:05:13;19.90;99.90
29413;DHT22;16389;50.126;8.450;2023-08-21T04:07:39;19.90;99.90
29413;DHT22;16389;50.126;8.450;2023-08-21T04:10:05;19.80;99.90
29413;DHT22;16389;50.126;8.450;2023-08-21T04:12:31;19.80;99.90
29413;DHT22;16389;50.126;8.450;2023-08-21T04:14:57;19.80;99.90
29413;DHT22;16389;50.126;8.450;2023-08-21T04:17:23;19.80;99.90
29413;DHT22;16389;50.126;8.450;2023-08-21T04:19:49;19.70;99.90
29413;DHT22;16389;50.126;8.450;2023-08-21T04:22:15;19.70;99.90
29413;DHT22;16389;50.126;8.450;2023-08-21T04:24:41;19.70;99.90
29413;DHT22;16389;50.126;8.450;2023-08-21T04:27:07;19.70;99.90
29413;DHT22;16389;50.126;8.450;2023-08-21T04:29:35;19.70;99.90
29413;DHT22;16389;50.126;8.450;2023-08-21T04:32:00;19.70;99.90
29413;DHT22;16389;50.126;8.450;2023-08-21T04:34:26;19.70;99.90
29413;DHT22;16389;50.126;8.450;2023-08-21T04:36:52;19.60;99.90
29413;DHT22;16389;50.126;8.450;2023-08-21T04:39:18;19.60;99.90
29413;DHT22;16389;50.126;8.450;2023-08-21T04:41:43;19.60;99.90
29413;DHT22;16389;50.126;8.450;2023-08-21T04:44:09;19.60;99.90
29413;DHT22;16389;50.126;8.450;2023-08-21T04:46:34;19.60;99.90
29413;DHT22;16389;50.126;8.450;2023-08-21T04:49:00;19.60;99.90
29413;DHT22;16389;50.126;8.450;2023-08-21T04:51:25;19.60;99.90
29413;DHT22;16389;50.126;8.450;2023-08-21T04:53:51;19.60;99.90
29413;DHT22;16389;50.126;8.450;2023-08-21T04:56:17;19.60;99.90
29413;DHT22;16389;50.126;8.450;2023-08-21T04:58:42;19.70;99.90
29413;DHT22;16389;50.126;8.450;2023-08-21T05:01:08;19.70;99.90
29413;DHT22;16389;50.126;8.450;2023-08-21T05:03:34;19.70;99.90
29413;DHT22;16389;50.126;8.450;2023-08-21T05:05:59;19.70;99.90
29413;DHT22;16389;50.126;8.450;2023-08-21T05:08:25;19.80;99.90
29413;DHT22;16389;50.126;8.450;2023-08-21T05:10:58;19.80;99.90
29413;DHT22;16389;50.126;8.450;2023-08-21T05:13:24;19.90;99.90
29413;DHT22;16389;50.126;8.450;2023-08-21T05:15:54;20.00;99.90
29413;DHT22;16389;50.126;8.450;2023-08-21T05:18:20;20.00;99.90
29413;DHT22;16389;50.126;8.450;2023-08-21T05:20:47;20.10;99.90
29413;DHT22;16389;50.126;8.450;2023-08-21T05:23:13;20.20;99.90
29413;DHT22;16389;50.126;8.450;2023-08-21T05:25:39;20.20;99.90
29413;DHT22;16389;50.126;8.450;2023-08-21T05:28:06;20.30;99.90
29413;DHT22;16389;50.126;8.450;2023-08-21T05:30:31;20.40;99.90
29413;DHT22;16389;50.126;8.450;2023-08-21T05:32:57;20.50;99.90
29413;DHT22;16389;50.126;8.450;2023-08-21T05:35:23;20.50;99.90
29413;DHT22;16389;50.126;8.450;2023-08-21T05:37:49;20.60;99.90
29413;DHT22;16389;50.126;8.450;2023-08-21T05:40:14;20.70;99.90
29413;DHT22;16389;50.126;8.450;2023-08-21T05:42:40;20.70;99.90
29413;DHT22;16389;50.126;8.450;2023-08-21T05:45:06;20.80;99.90
29413;DHT22;16389;50.126;8.450;2023-08-21T05:47:32;20.90;99.90
29413;DHT22;16389;50.126;8.450;2023-08-21T05:49:57;21.00;99.90
29413;DHT22;16389;50.126;8.450;2023-08-21T05:52:23;21.00;99.90
29413;DHT22;16389;50.126;8.450;2023-08-21T05:54:49;21.00;99.90
29413;DHT22;16389;50.126;8.450;2023-08-21T05:57:15;21.10;99.90
29413;DHT22;16389;50.126;8.450;2023-08-21T05:59:45;21.10;99.90
29413;DHT22;16389;50.126;8.450;2023-08-21T06:02:10;21.10;99.90
29413;DHT22;16389;50.126;8.450;2023-08-21T06:04:39;21.30;99.90
29413;DHT22;16389;50.126;8.450;2023-08-21T06:07:05;21.30;99.90
29413;DHT22;16389;50.126;8.450;2023-08-21T06:09:31;21.30;99.90
29413;DHT22;16389;50.126;8.450;2023-08-21T06:12:00;21.40;99.90
29413;DHT22;16389;50.126;8.450;2023-08-21T06:14:26;21.40;99.90
29413;DHT22;16389;50.126;8.450;2023-08-21T06:17:02;21.50;99.90
29413;DHT22;16389;50.126;8.450;2023-08-21T06:19:28;21.60;99.90
29413;DHT22;16389;50.126;8.450;2023-08-21T06:21:57;21.70;99.90
29413;DHT22;16389;50.126;8.450;2023-08-21T06:24:23;21.80;99.90
29413;DHT22;16389;50.126;8.450;2023-08-21T06:26:50;21.90;99.90
29413;DHT22;16389;50.126;8.450;2023-08-21T06:29:16;21.90;99.90
29413;DHT22;16389;50.126;8.450;2023-08-21T06:31:42;22.10;99.90
29413;DHT22;16389;50.126;8.450;2023-08-21T06:34:08;22.20;99.90
29413;DHT22;16389;50.126;8.450;2023-08-21T06:36:34;22.30;99.90
29413;DHT22;16389;50.126;8.450;2023-08-21T06:38:59;22.50;99.90
29413;DHT22;16389;50.126;8.450;2023-08-21T06:41:25;22.60;99.90
29413;DHT22;16389;50.126;8.450;2023-08-21T06:43:51;22.80;99.90
29413;DHT22;16389;50.126;8.450;2023-08-21T06:46:16;22.90;99.90
29413;DHT22;16389;50.126;8.450;2023-08-21T06:48:42;23.10;99.90
29413;DHT22;16389;50.126;8.450;2023-08-21T06:51:09;23.20;99.90
29413;DHT22;16389;50.126;8.450;2023-08-21T06:53:35;23.40;99.90
29413;DHT22;16389;50.126;8.450;2023-08-21T06:56:00;23.60;99.90
29413;DHT22;16389;50.126;8.450;2023-08-21T06:58:26;23.70;99.90
29413;DHT22;16389;50.126;8.450;2023-08-21T07:00:54;23.90;99.90
29413;DHT22;16389;50.126;8.450;2023-08-21T07:03:20;24.10;99.90
29413;DHT22;16389;50.126;8.450;2023-08-21T07:05:56;24.30;99.90
29413;DHT22;16389;50.126;8.450;2023-08-21T07:08:25;24.50;99.90
29413;DHT22;16389;50.126;8.450;2023-08-21T07:10:52;24.60;99.90
29413;DHT22;16389;50.126;8.450;2023-08-21T07:13:18;24.80;99.90
29413;DHT22;16389;50.126;8.450;2023-08-21T07:15:44;25.00;99.90
29413;DHT22;16389;50.126;8.450;2023-08-21T07:18:10;25.10;99.90
29413;DHT22;16389;50.126;8.450;2023-08-21T07:20:35;25.30;99.90
29413;DHT22;16389;50.126;8.450;2023-08-21T07:23:01;25.50;99.90
29413;DHT22;16389;50.126;8.450;2023-08-21T07:25:27;25.70;99.90
29413;DHT22;16389;50.126;8.450;2023-08-21T07:27:56;25.90;99.90
29413;DHT22;16389;50.126;8.450;2023-08-21T07:30:22;26.10;99.90
29413;DHT22;16389;50.126;8.450;2023-08-21T07:32:48;26.30;99.90
29413;DHT22;16389;50.126;8.450;2023-08-21T07:35:14;26.50;99.90
29413;DHT22;16389;50.126;8.450;2023-08-21T07:37:43;26.70;99.90
29413;DHT22;16389;50.126;8.450;2023-08-21T07:40:09;26.90;99.90
29413;DHT22;16389;50.126;8.450;2023-08-21T07:42:35;27.10;99.90
29413;DHT22;16389;50.126;8.450;2023-08-21T07:45:01;27.30;99.90
29413;DHT22;16389;50.126;8.450;2023-08-21T07:47:27;27.60;99.90
29413;DHT22;16389;50.126;8.450;2023-08-21T07:49:53;27.80;99.90
29413;DHT22;16389;50.126;8.450;2023-08-21T07:52:19;27.90;99.90
29413;DHT22;16389;50.126;8.450;2023-08-21T07:54:45;28.00;99.90
29413;DHT22;16389;50.126;8.450;2023-08-21T07:57:11;28.20;99.90
29413;DHT22;16389;50.126;8.450;2023-08-21T07:59:37;28.50;99.90
29413;DHT22;16389;50.126;8.450;2023-08-21T08:02:03;28.70;99.90
29413;DHT22;16389;50.126;8.450;2023-08-21T08:04:30;28.80;99.90
29413;DHT22;16389;50.126;8.450;2023-08-21T08:06:55;29.00;99.90
29413;DHT22;16389;50.126;8.450;2023-08-21T08:09:21;29.10;99.90
29413;DHT22;16389;50.126;8.450;2023-08-21T08:11:47;29.20;99.90
29413;DHT22;16389;50.126;8.450;2023-08-21T08:14:12;29.40;99.90
29413;DHT22;16389;50.126;8.450;2023-08-21T08:16:38;29.50;99.90
29413;DHT22;16389;50.126;8.450;2023-08-21T08:19:03;29.80;99.90
29413;DHT22;16389;50.126;8.450;2023-08-21T08:21:29;29.90;99.90
29413;DHT22;16389;50.126;8.450;2023-08-21T08:23:56;30.10;99.90
29413;DHT22;16389;50.126;8.450;2023-08-21T08:26:21;30.20;99.90
29413;DHT22;16389;50.126;8.450;2023-08-21T08:28:47;30.30;99.90
29413;DHT22;16389;50.126;8.450;2023-08-21T08:31:16;30.40;99.90
29413;DHT22;16389;50.126;8.450;2023-08-21T08:33:42;30.60;99.90
29413;DHT22;16389;50.126;8.450;2023-08-21T08:36:08;30.70;99.90
29413;DHT22;16389;50.126;8.450;2023-08-21T08:38:34;30.90;99.90
29413;DHT22;16389;50.126;8.450;2023-08-21T08:41:02;31.10;99.90
29413;DHT22;16389;50.126;8.450;2023-08-21T08:43:28;31.10;99.90
29413;DHT22;16389;50.126;8.450;2023-08-21T08:45:56;31.20;99.90
29413;DHT22;16389;50.126;8.450;2023-08-21T08:48:23;31.40;99.90
29413;DHT22;16389;50.126;8.450;2023-08-21T08:50:50;31.40;99.90
29413;DHT22;16389;50.126;8.450;2023-08-21T08:53:18;31.50;99.90
29413;DHT22;16389;50.126;8.450;2023-08-21T08:55:44;31.70;99.60
29413;DHT22;16389;50.126;8.450;2023-08-21T08:58:10;31.90;99.90
29413;DHT22;16389;50.126;8.450;2023-08-21T09:00:36;32.10;99.80
29413;DHT22;16389;50.126;8.450;2023-08-21T09:03:02;32.30;99.90
29413;DHT22;16389;50.126;8.450;2023-08-21T09:05:28;32.60;98.60
29413;DHT22;16389;50.126;8.450;2023-08-21T09:08:12;32.80;99.00
29413;DHT22;16389;50.126;8.450;2023-08-21T09:10:40;33.00;97.60
29413;DHT22;16389;50.126;8.450;2023-08-21T09:13:32;33.30;97.10
29413;DHT22;16389;50.126;8.450;2023-08-21T09:15:58;33.60;97.10
29413;DHT22;16389;50.126;8.450;2023-08-21T09:18:24;33.70;95.10
29413;DHT22;16389;50.126;8.450;2023-08-21T09:20:50;33.80;95.20
29413;DHT22;16389;50.126;8.450;2023-08-21T09:23:17;33.70;94.80
29413;DHT22;16389;50.126;8.450;2023-08-21T09:25:48;34.00;95.10
29413;DHT22;16389;50.126;8.450;2023-08-21T09:28:14;34.30;95.30
29413;DHT22;16389;50.126;8.450;2023-08-21T09:30:51;34.40;92.80
29413;DHT22;16389;50.126;8.450;2023-08-21T09:33:18;34.50;93.70
29413;DHT22;16389;50.126;8.450;2023-08-21T09:35:44;34.60;93.00
29413;DHT22;16389;50.126;8.450;2023-08-21T09:38:11;34.80;92.50
29413;DHT22;16389;50.126;8.450;2023-08-21T09:40:49;35.10;92.00
29413;DHT22;16389;50.126;8.450;2023-08-21T09:43:16;35.30;91.30
29413;DHT22;16389;50.126;8.450;2023-08-21T09:45:49;35.30;90.60
29413;DHT22;16389;50.126;8.450;2023-08-21T09:48:16;35.50;91.50
29413;DHT22;16389;50.126;8.450;2023-08-21T09:50:42;35.70;90.50
29413;DHT22;16389;50.126;8.450;2023-08-21T09:53:09;35.80;89.40
29413;DHT22;16389;50.126;8.450;2023-08-21T09:55:35;36.30;88.10
29413;DHT22;16389;50.126;8.450;2023-08-21T09:58:01;36.20;87.80
29413;DHT22;16389;50.126;8.450;2023-08-21T10:00:32;36.50;87.80
29413;DHT22;16389;50.126;8.450;2023-08-21T10:03:02;36.80;86.10
29413;DHT22;16389;50.126;8.450;2023-08-21T10:05:30;37.00;85.50
29413;DHT22;16389;50.126;8.450;2023-08-21T10:07:58;37.40;85.40
29413;DHT22;16389;50.126;8.450;2023-08-21T10:10:26;37.80;84.70
29413;DHT22;16389;50.126;8.450;2023-08-21T10:12:52;38.20;83.20
29413;DHT22;16389;50.126;8.450;2023-08-21T10:15:18;38.80;79.90
29413;DHT22;16389;50.126;8.450;2023-08-21T10:17:44;38.90;83.00
29413;DHT22;16389;50.126;8.450;2023-08-21T10:20:09;39.50;78.40
29413;DHT22;16389;50.126;8.450;2023-08-21T10:22:55;39.80;77.50
29413;DHT22;16389;50.126;8.450;2023-08-21T10:25:25;40.30;74.80
29413;DHT22;16389;50.126;8.450;2023-08-21T10:27:56;40.50;76.60
29413;DHT22;16389;50.126;8.450;2023-08-21T10:30:24;41.10;74.20
29413;DHT22;16389;50.126;8.450;2023-08-21T10:32:55;41.90;71.40
29413;DHT22;16389;50.126;8.450;2023-08-21T10:35:22;42.30;68.00
29413;DHT22;16389;50.126;8.450;2023-08-21T10:40:33;42.70;65.70
29413;DHT22;16389;50.126;8.450;2023-08-21T10:43:00;43.00;63.00
29413;DHT22;16389;50.126;8.450;2023-08-21T10:45:26;43.60;64.30
29413;DHT22;16389;50.126;8.450;2023-08-21T10:47:51;43.70;65.00
29413;DHT22;16389;50.126;8.450;2023-08-21T10:50:17;44.40;60.70
29413;DHT22;16389;50.126;8.450;2023-08-21T10:52:43;44.40;60.10
29413;DHT22;16389;50.126;8.450;2023-08-21T10:55:14;44.60;59.90
29413;DHT22;16389;50.126;8.450;2023-08-21T10:57:40;44.50;59.90
29413;DHT22;16389;50.126;8.450;2023-08-21T11:00:11;45.20;57.10
29413;DHT22;16389;50.126;8.450;2023-08-21T11:02:37;45.30;55.80
29413;DHT22;16389;50.126;8.450;2023-08-21T11:05:04;44.40;57.80
29413;DHT22;16389;50.126;8.450;2023-08-21T11:07:40;44.50;58.10
29413;DHT22;16389;50.126;8.450;2023-08-21T11:10:07;44.80;58.70
29413;DHT22;16389;50.126;8.450;2023-08-21T11:12:36;44.30;58.90
29413;DHT22;16389;50.126;8.450;2023-08-21T11:15:05;44.10;57.30
29413;DHT22;16389;50.126;8.450;2023-08-21T11:17:30;44.60;56.90
29413;DHT22;16389;50.126;8.450;2023-08-21T11:19:56;44.80;56.80
29413;DHT22;16389;50.126;8.450;2023-08-21T11:22:31;45.40;55.90
29413;DHT22;16389;50.126;8.450;2023-08-21T11:24:57;46.20;53.30
29413;DHT22;16389;50.126;8.450;2023-08-21T11:27:24;46.70;54.90
29413;DHT22;16389;50.126;8.450;2023-08-21T11:29:50;46.20;53.20
29413;DHT22;16389;50.126;8.450;2023-08-21T11:32:21;46.40;53.30
29413;DHT22;16389;50.126;8.450;2023-08-21T11:34:54;46.40;52.80
29413;DHT22;16389;50.126;8.450;2023-08-21T11:37:23;47.70;52.40
29413;DHT22;16389;50.126;8.450;2023-08-21T11:39:50;48.30;51.50
29413;DHT22;16389;50.126;8.450;2023-08-21T11:42:22;48.60;51.80
29413;DHT22;16389;50.126;8.450;2023-08-21T11:44:50;48.70;49.40
29413;DHT22;16389;50.126;8.450;2023-08-21T11:47:18;49.10;49.10
29413;DHT22;16389;50.126;8.450;2023-08-21T11:49:45;49.60;46.80
29413;DHT22;16389;50.126;8.450;2023-08-21T11:52:21;49.60;48.40
29413;DHT22;16389;50.126;8.450;2023-08-21T11:54:51;50.70;48.10
29413;DHT22;16389;50.126;8.450;2023-08-21T11:57:18;50.50;46.00
29413;DHT22;16389;50.126;8.450;2023-08-21T11:59:55;50.70;46.50
29413;DHT22;16389;50.126;8.450;2023-08-21T12:02:28;50.90;44.50
29413;DHT22;16389;50.126;8.450;2023-08-21T12:05:14;51.70;44.90
29413;DHT22;16389;50.126;8.450;2023-08-21T12:07:40;51.60;42.50
29413;DHT22;16389;50.126;8.450;2023-08-21T12:10:06;51.50;43.50
29413;DHT22;16389;50.126;8.450;2023-08-21T12:12:31;51.90;42.80
29413;DHT22;16389;50.126;8.450;2023-08-21T12:14:57;51.80;43.90
29413;DHT22;16389;50.126;8.450;2023-08-21T12:17:23;51.70;44.10
29413;DHT22;16389;50.126;8.450;2023-08-21T12:19:48;52.30;43.50
29413;DHT22;16389;50.126;8.450;2023-08-21T12:22:14;52.30;41.00
29413;DHT22;16389;50.126;8.450;2023-08-21T12:24:39;52.60;40.70
29413;DHT22;16389;50.126;8.450;2023-08-21T12:27:06;51.60;41.50
29413;DHT22;16389;50.126;8.450;2023-08-21T12:29:32;51.70;42.80
29413;DHT22;16389;50.126;8.450;2023-08-21T12:31:57;51.80;43.30
29413;DHT22;16389;50.126;8.450;2023-08-21T12:34:23;51.60;41.80
29413;DHT22;16389;50.126;8.450;2023-08-21T12:36:50;51.90;42.60
29413;DHT22;16389;50.126;8.450;2023-08-21T12:39:17;52.00;41.70
29413;DHT22;16389;50.126;8.450;2023-08-21T12:41:43;52.50;40.80
29413;DHT22;16389;50.126;8.450;2023-08-21T12:44:08;52.70;39.90
29413;DHT22;16389;50.126;8.450;2023-08-21T12:46:35;52.40;40.60
29413;DHT22;16389;50.126;8.450;2023-08-21T12:49:01;51.40;41.60
29413;DHT22;16389;50.126;8.450;2023-08-21T12:51:28;48.50;43.70
29413;DHT22;16389;50.126;8.450;2023-08-21T12:53:54;47.00;46.60
29413;DHT22;16389;50.126;8.450;2023-08-21T12:56:20;47.90;46.50
29413;DHT22;16389;50.126;8.450;2023-08-21T12:58:46;49.00;43.20
29413;DHT22;16389;50.126;8.450;2023-08-21T13:01:12;49.80;42.90
29413;DHT22;16389;50.126;8.450;2023-08-21T13:03:38;49.50;42.30
29413;DHT22;16389;50.126;8.450;2023-08-21T13:06:03;48.90;43.00
29413;DHT22;16389;50.126;8.450;2023-08-21T13:08:30;48.70;43.90
29413;DHT22;16389;50.126;8.450;2023-08-21T13:10:55;47.70;45.20
29413;DHT22;16389;50.126;8.450;2023-08-21T13:13:21;45.50;46.50
29413;DHT22;16389;50.126;8.450;2023-08-21T13:15:46;43.20;49.80
29413;DHT22;16389;50.126;8.450;2023-08-21T13:18:12;40.90;55.40
29413;DHT22;16389;50.126;8.450;2023-08-21T13:20:41;39.00;60.10
29413;DHT22;16389;50.126;8.450;2023-08-21T13:23:06;37.50;65.20
29413;DHT22;16389;50.126;8.450;2023-08-21T13:25:33;36.40;68.80
29413;DHT22;16389;50.126;8.450;2023-08-21T13:28:01;35.20;72.50
29413;DHT22;16389;50.126;8.450;2023-08-21T13:30:29;34.40;77.50
29413;DHT22;16389;50.126;8.450;2023-08-21T13:32:54;33.80;80.40
29413;DHT22;16389;50.126;8.450;2023-08-21T13:35:20;33.30;82.60
29413;DHT22;16389;50.126;8.450;2023-08-21T13:37:48;32.90;86.10
29413;DHT22;16389;50.126;8.450;2023-08-21T13:40:13;32.50;87.20
29413;DHT22;16389;50.126;8.450;2023-08-21T13:42:42;32.20;90.50
29413;DHT22;16389;50.126;8.450;2023-08-21T13:45:10;32.00;91.20
29413;DHT22;16389;50.126;8.450;2023-08-21T13:47:49;31.80;92.40
29413;DHT22;16389;50.126;8.450;2023-08-21T13:50:16;31.60;92.90
29413;DHT22;16389;50.126;8.450;2023-08-21T13:52:43;31.90;93.90
29413;DHT22;16389;50.126;8.450;2023-08-21T13:55:14;32.50;93.60
29413;DHT22;16389;50.126;8.450;2023-08-21T13:57:40;33.60;92.50
29413;DHT22;16389;50.126;8.450;2023-08-21T14:00:07;34.50;89.10
29413;DHT22;16389;50.126;8.450;2023-08-21T14:02:36;35.20;88.40
29413;DHT22;16389;50.126;8.450;2023-08-21T14:05:05;35.90;79.60
29413;DHT22;16389;50.126;8.450;2023-08-21T14:07:31;36.30;83.40
29413;DHT22;16389;50.126;8.450;2023-08-21T14:09:57;36.40;77.40
29413;DHT22;16389;50.126;8.450;2023-08-21T14:12:23;36.40;75.10
29413;DHT22;16389;50.126;8.450;2023-08-21T14:14:48;35.80;70.80
29413;DHT22;16389;50.126;8.450;2023-08-21T14:17:14;35.00;79.70
29413;DHT22;16389;50.126;8.450;2023-08-21T14:19:40;34.10;88.50
29413;DHT22;16389;50.126;8.450;2023-08-21T14:22:06;33.60;91.90
29413;DHT22;16389;50.126;8.450;2023-08-21T14:24:32;33.10;92.30
29413;DHT22;16389;50.126;8.450;2023-08-21T14:26:58;32.60;93.60
29413;DHT22;16389;50.126;8.450;2023-08-21T14:29:23;32.10;94.90
29413;DHT22;16389;50.126;8.450;2023-08-21T14:31:49;31.70;96.10
29413;DHT22;16389;50.126;8.450;2023-08-21T14:34:18;31.40;97.00
29413;DHT22;16389;50.126;8.450;2023-08-21T14:36:44;31.20;98.20
29413;DHT22;16389;50.126;8.450;2023-08-21T14:39:10;30.80;98.60
29413;DHT22;16389;50.126;8.450;2023-08-21T14:41:37;30.60;99.10
29413;DHT22;16389;50.126;8.450;2023-08-21T14:44:03;30.40;99.90
29413;DHT22;16389;50.126;8.450;2023-08-21T14:46:29;30.40;99.90
29413;DHT22;16389;50.126;8.450;2023-08-21T14:48:54;31.00;99.90
29413;DHT22;16389;50.126;8.450;2023-08-21T14:51:20;31.60;99.90
29413;DHT22;16389;50.126;8.450;2023-08-21T14:53:46;31.70;97.70
29413;DHT22;16389;50.126;8.450;2023-08-21T14:56:12;31.40;99.50
29413;DHT22;16389;50.126;8.450;2023-08-21T14:58:37;31.00;99.90
29413;DHT22;16389;50.126;8.450;2023-08-21T15:01:03;30.70;99.90
29413;DHT22;16389;50.126;8.450;2023-08-21T15:03:30;30.30;99.90
29413;DHT22;16389;50.126;8.450;2023-08-21T15:05:55;30.10;99.90
29413;DHT22;16389;50.126;8.450;2023-08-21T15:08:21;30.00;99.90
29413;DHT22;16389;50.126;8.450;2023-08-21T15:10:46;30.00;99.90
29413;DHT22;16389;50.126;8.450;2023-08-21T15:13:12;30.20;99.90
29413;DHT22;16389;50.126;8.450;2023-08-21T15:15:38;30.20;99.90
29413;DHT22;16389;50.126;8.450;2023-08-21T15:18:03;30.10;99.90
29413;DHT22;16389;50.126;8.450;2023-08-21T15:20:29;30.30;99.90
29413;DHT22;16389;50.126;8.450;2023-08-21T15:24:37;30.40;99.90
29413;DHT22;16389;50.126;8.450;2023-08-21T15:27:03;30.90;99.90
29413;DHT22;16389;50.126;8.450;2023-08-21T15:29:28;31.00;99.90
29413;DHT22;16389;50.126;8.450;2023-08-21T15:31:54;30.80;99.90
29413;DHT22;16389;50.126;8.450;2023-08-21T15:34:23;30.50;99.90
29413;DHT22;16389;50.126;8.450;2023-08-21T15:36:48;30.50;99.90